Sanger, TX (76266)

2:52 AM CST on December 25, 2014 (GMT -0600)
Sanger Texas | Change Station
CLOSE
Current Station
Personal Weather Station
Location: Sanger, TX
Elevation: 681 ft
Nearby Weather Stations

Elev 681 ft 33.36 °N, 97.17 °W | Updated 6 seconds ago

Clear
Clear
34.9 °F
Feels Like 35 °F
N
0.0
Wind Variable Wind from West
Gusts 0.0 mph

Today
High -- | Low -- °F
--% Chance of Precip.
Yesterday
High -- | Low -- °F
Precip. -- in
7:30 AM 5:27 PM
Waxing Crescent, 14% visible
Pressure 29.97 in
Visibility 10.0 miles
Clouds Clear
Windchill 35 °F
Dew Point 27 °F
Humidity 73%
Rainfall 0.00 in
Snow Depth Not available.
UV 0 out of 12
Pollen 10.70 out of 12
Air Quality Not available.
Flu Activity Not available.
METAR KDTO 250753Z AUTO 15006KT 10SM CLR 02/M03 A2997 RMK AO2 SLP148 T00171028

More Conditions Fewer Conditions

Pressure 29.97 in
Visibility 10.0 miles
Clouds Clear
Windchill 35 °F
Dew Point 27 °F
Humidity 73%
Rainfall 0.00 in
Snow Depth Not available.
UV 0 out of 12
Pollen 10.70 out of 12
Air Quality Not available.
Flu Activity Not available.
METAR KDTO 250753Z AUTO 15006KT 10SM CLR 02/M03 A2997 RMK AO2 SLP148 T00171028

More Conditions Fewer Conditions

10-Day Weather Forecast

Almanac

Astronomy

Dec. 25, 2014 Rise Set
Actual Time
Civil Twilight
Nautical Twilight
Astronomical Twilight
Moon
Length of Visible Light
Length of Day
Tomorrow will be .
, % of the Moon is Illuminated

Today's Extremes

State Highs State Lows

Community

WunderPhotos

Upload Photos

1,780,250 photos uploaded!

WunderBlogs® & News

Nearby

Air Quality

  Air Quality AQ Index Pollutant
Not available.

Snow Depth

Station Depth Elevation

Earthquake Activity

City Distance Mag. Time & Date
Minimum magnitude displayed is 2.5.

Coastal Water Temperatures

Place Temperature

Nearby Weather Stations